Ye Chi — VRFV6 — position and weather

sailwx.info

Track history (hours):
 
Tides and Currents Weather Stations Pressure Air Temp Water Temp Dewpoint Dewpoint Depression Visibility Wind Speed Wind Dir Waves Ship Positions

Ye Chi

Last reported at 2014-Jul-24 09:27 UTC. Time now 2014-Jul-24 15:26 UTC.
Position N 31°22' E 121°42'.

Length 187 m; draft 7.5 m.

Type: Ship. MMSI: 477621300.

Date/timePositionNaut miles runAvg speedWind from/ knotsBaromVisibWave heightAir tempDewpointWater temp
2014-Jul-24 09:27N 31°22' E 121°42'0 0.0
2014-Jul-24 08:33N 31°22' E 121°42'0 0.0
2014-Jul-24 07:20N 31°22' E 121°42'0 0.0
2014-Jul-24 06:10N 31°22' E 121°42'0 0.0
2014-Jul-24 05:33N 31°22' E 121°42'0 0.0
2014-Jul-24 04:32N 31°22' E 121°42'0 0.1
2014-Jul-24 03:30N 31°22' E 121°42'0 0.0
2014-Jul-24 00:29N 31°22' E 121°42'0 0.1
2014-Jul-23 23:31N 31°22' E 121°42'0 0.0
2014-Jul-23 22:32N 31°22' E 121°42'0 0.0
2014-Jul-23 21:29N 31°22' E 121°42'0 0.1
2014-Jul-23 20:29N 31°22' E 121°42'0 0.0
2014-Jul-23 17:32N 31°22' E 121°42'0 0.1
2014-Jul-23 16:30N 31°22' E 121°42'0 0.0
2014-Jul-23 15:28N 31°22' E 121°42'0 0.0
2014-Jul-23 13:13N 31°22' E 121°42'0 0.0
2014-Jul-23 12:15N 31°22' E 121°42'0 0.0
2014-Jul-23 08:27N 31°22' E 121°42'0 0.1
2014-Jul-23 07:32N 31°22' E 121°42'0 0.0
2014-Jul-23 06:17N 31°22' E 121°42'0 0.0
2014-Jul-23 01:17N 31°22' E 121°42'0 0.0
2014-Jul-23 00:33N 31°22' E 121°42'0 0.0
2014-Jul-22 20:07N 31°22' E 121°42'0 0.0
2014-Jul-22 19:06N 31°22' E 121°42'0 0.1
2014-Jul-22 18:32N 31°22' E 121°42'0 0.0
2014-Jul-22 06:06N 31°22' E 121°42'0 0.0
2014-Jul-22 05:25N 31°22' E 121°42'0 0.1
2014-Jul-22 04:31N 31°22' E 121°42'0 0.0
2014-Jul-22 03:28N 31°22' E 121°42'0 0.0
2014-Jul-22 02:07N 31°22' E 121°42'0 0.0
2014-Jul-22 01:05N 31°22' E 121°42'0 0.0
2014-Jul-21 20:29N 31°22' E 121°42'0 0.0
2014-Jul-21 20:10N 31°22' E 121°42'0 0.1
2014-Jul-21 19:23N 31°22' E 121°42'0 0.1
2014-Jul-21 18:33N 31°22' E 121°42'0 0.0
2014-Jul-21 09:20N 31°22' E 121°42'0 0.0
2014-Jul-21 08:33N 31°22' E 121°42'0 0.0
2014-Jul-21 07:31N 31°22' E 121°42'0 0.0
2014-Jul-21 05:12N 31°22' E 121°42'0 0.0
2014-Jul-21 04:30N 31°22' E 121°42'0 0.1
2014-Jul-21 03:30N 31°22' E 121°42'0 0.2
2014-Jul-21 02:33N 31°22' E 121°42'3 2.8
2014-Jul-21 01:33N 31°20' E 121°44'1110.0
2014-Jul-21 00:25N 31°16' E 121°56'1110.9
2014-Jul-20 23:25N 31°12' E 122°08'1112.5
2014-Jul-20 22:33N 31°06' E 122°19'9 9.2
2014-Jul-20 21:34N 31°07' E 122°29'2310.1
2014-Jul-20 19:16N 31°03' E 122°56'3 0.9
2014-Jul-20 15:31N 31°01' E 122°58'2 2.2
2014-Jul-20 14:32N 30°59' E 122°60'9 9.3
2014-Jul-20 13:33N 30°50' E 123°01'1110.8
2014-Jul-20 12:33N 30°39' E 123°01'1111.5
2014-Jul-20 11:33N 30°28' E 123°00'1312.6
2014-Jul-20 10:33N 30°15' E 123°01'1212.1
2014-Jul-20 09:33N 30°03' E 122°57'1211.7
2014-Jul-20 08:34N 29°56' E 122°47'1211.8
2014-Jul-20 07:33N 29°49' E 122°36'1111.2
2014-Jul-20 06:33N 29°44' E 122°24'9 9.4
2014-Jul-20 05:34N 29°48' E 122°14'5 4.8
2014-Jul-20 04:32N 29°53' E 122°13'0 0.0
2014-Jul-20 03:32N 29°53' E 122°13'0 0.0
2014-Jul-20 02:32N 29°53' E 122°13'0 0.0
2014-Jul-20 01:32N 29°53' E 122°13'0 0.1
2014-Jul-20 00:32N 29°53' E 122°13'0 0.1
2014-Jul-19 23:32N 29°53' E 122°13'0 0.0
2014-Jul-19 22:32N 29°53' E 122°13'0 0.0
2014-Jul-19 21:32N 29°53' E 122°13'0 0.1
2014-Jul-19 20:32N 29°53' E 122°13'0 0.1
2014-Jul-19 19:32N 29°53' E 122°13'0 0.1
2014-Jul-19 18:32N 29°53' E 122°13'0 0.0
2014-Jul-19 17:32N 29°53' E 122°13'0 0.2
2014-Jul-19 16:26N 29°53' E 122°13'0 0.0
2014-Jul-19 15:32N 29°53' E 122°13'0 0.0
2014-Jul-19 14:32N 29°53' E 122°13'0 0.0
2014-Jul-19 13:32N 29°53' E 122°13'0 0.0
2014-Jul-19 12:32N 29°53' E 122°13'0 0.1
2014-Jul-19 11:32N 29°53' E 122°13'0 0.1
2014-Jul-19 10:32N 29°53' E 122°13'0 0.1
2014-Jul-19 09:32N 29°53' E 122°13'0 0.1
2014-Jul-19 08:32N 29°53' E 122°13'0 0.1
2014-Jul-19 07:32N 29°53' E 122°13'0 0.1
2014-Jul-19 06:32N 29°53' E 122°13'0 0.0
2014-Jul-19 05:32N 29°53' E 122°13'0 0.2
2014-Jul-19 04:32N 29°53' E 122°13'0 0.0
2014-Jul-19 03:32N 29°53' E 122°13'0 0.0
2014-Jul-19 02:32N 29°53' E 122°13'0 0.0
2014-Jul-19 01:32N 29°53' E 122°13'0 0.0
2014-Jul-19 00:32N 29°53' E 122°13'0 0.1
2014-Jul-18 23:32N 29°53' E 122°13'0 0.0
2014-Jul-18 22:32N 29°53' E 122°13'0 0.0
2014-Jul-18 21:32N 29°53' E 122°13'0 0.0
2014-Jul-18 20:32N 29°53' E 122°13'0 0.1
2014-Jul-18 19:32N 29°53' E 122°13'0 0.0
2014-Jul-18 18:32N 29°53' E 122°13'0 0.1
2014-Jul-18 17:32N 29°53' E 122°13'0 0.0
2014-Jul-18 16:32N 29°53' E 122°13'0 0.1
2014-Jul-18 15:32N 29°53' E 122°13'0 0.1
2014-Jul-18 14:32N 29°53' E 122°13'0 0.0
2014-Jul-18 13:26N 29°53' E 122°13'0 0.0
2014-Jul-18 12:32N 29°53' E 122°13'0 0.0
2014-Jul-18 11:32N 29°53' E 122°13'0 0.0
2014-Jul-18 10:32N 29°53' E 122°13'0 0.1
2014-Jul-18 09:32N 29°53' E 122°13'0 0.2
2014-Jul-18 08:33N 29°53' E 122°13'9 8.9
2014-Jul-18 07:33N 29°46' E 122°19'6 6.0
2014-Jul-18 06:33N 29°42' E 122°24'2 1.7
2014-Jul-18 05:33N 29°41' E 122°25'3 3.0
2014-Jul-18 04:33N 29°38' E 122°26'1110.4
2014-Jul-18 03:32N 29°28' E 122°30'1612.8
2014-Jul-18 02:18N 29°12' E 122°30'26713.4
2014-Jul-17 06:24N 25°21' E 120°01'2613.2
2014-Jul-17 04:27N 25°01' E 119°43'1514.3
2014-Jul-17 03:24N 24°50' E 119°32'1314.2
2014-Jul-17 02:31N 24°41' E 119°22'1414.4
2014-Jul-17 01:33N 24°31' E 119°11'1514.5
2014-Jul-17 00:33N 24°22' E 118°59'2813.9
2014-Jul-16 22:33N 24°03' E 118°37'1312.9
2014-Jul-16 21:33N 23°54' E 118°26'2512.6
2014-Jul-16 19:33N 23°37' E 118°06'1313.4
2014-Jul-16 18:33N 23°28' E 117°56'3414.6
2014-Jul-16 16:11N 23°05' E 117°28'1013.2
2014-Jul-16 15:28N 22°58' E 117°21'1314.7
2014-Jul-16 14:33N 22°45' E 117°16'1414.1
2014-Jul-16 13:33N 22°32' E 117°10'  
Track history (hours):
 
Tides and Currents Weather Stations Pressure Air Temp Water Temp Dewpoint Dewpoint Depression Visibility Wind Speed Wind Dir Waves Ship Positions

Ye Chi

Last reported at 2014-Jul-24 09:27 UTC. Time now 2014-Jul-24 15:26 UTC.
Position N 31°22' E 121°42'.

Length 187 m; draft 7.5 m.

Type: Ship. MMSI: 477621300.

Date/timePositionNaut miles runAvg speedWind from/ knotsBaromVisibWave heightAir tempDewpointWater temp
2014-Jul-24 09:27N 31°22' E 121°42'0 0.0
2014-Jul-24 08:33N 31°22' E 121°42'0 0.0
2014-Jul-24 07:20N 31°22' E 121°42'0 0.0
2014-Jul-24 06:10N 31°22' E 121°42'0 0.0
2014-Jul-24 05:33N 31°22' E 121°42'0 0.0
2014-Jul-24 04:32N 31°22' E 121°42'0 0.1
2014-Jul-24 03:30N 31°22' E 121°42'0 0.0
2014-Jul-24 00:29N 31°22' E 121°42'0 0.1
2014-Jul-23 23:31N 31°22' E 121°42'0 0.0
2014-Jul-23 22:32N 31°22' E 121°42'0 0.0
2014-Jul-23 21:29N 31°22' E 121°42'0 0.1
2014-Jul-23 20:29N 31°22' E 121°42'0 0.0
2014-Jul-23 17:32N 31°22' E 121°42'0 0.1
2014-Jul-23 16:30N 31°22' E 121°42'0 0.0
2014-Jul-23 15:28N 31°22' E 121°42'0 0.0
2014-Jul-23 13:13N 31°22' E 121°42'0 0.0
2014-Jul-23 12:15N 31°22' E 121°42'0 0.0
2014-Jul-23 08:27N 31°22' E 121°42'0 0.1
2014-Jul-23 07:32N 31°22' E 121°42'0 0.0
2014-Jul-23 06:17N 31°22' E 121°42'0 0.0
2014-Jul-23 01:17N 31°22' E 121°42'0 0.0
2014-Jul-23 00:33N 31°22' E 121°42'0 0.0
2014-Jul-22 20:07N 31°22' E 121°42'0 0.0
2014-Jul-22 19:06N 31°22' E 121°42'0 0.1
2014-Jul-22 18:32N 31°22' E 121°42'0 0.0
2014-Jul-22 06:06N 31°22' E 121°42'0 0.0
2014-Jul-22 05:25N 31°22' E 121°42'0 0.1
2014-Jul-22 04:31N 31°22' E 121°42'0 0.0
2014-Jul-22 03:28N 31°22' E 121°42'0 0.0
2014-Jul-22 02:07N 31°22' E 121°42'0 0.0
2014-Jul-22 01:05N 31°22' E 121°42'0 0.0
2014-Jul-21 20:29N 31°22' E 121°42'0 0.0
2014-Jul-21 20:10N 31°22' E 121°42'0 0.1
2014-Jul-21 19:23N 31°22' E 121°42'0 0.1
2014-Jul-21 18:33N 31°22' E 121°42'0 0.0
2014-Jul-21 09:20N 31°22' E 121°42'0 0.0
2014-Jul-21 08:33N 31°22' E 121°42'0 0.0
2014-Jul-21 07:31N 31°22' E 121°42'0 0.0
2014-Jul-21 05:12N 31°22' E 121°42'0 0.0
2014-Jul-21 04:30N 31°22' E 121°42'0 0.1
2014-Jul-21 03:30N 31°22' E 121°42'0 0.2
2014-Jul-21 02:33N 31°22' E 121°42'3 2.8
2014-Jul-21 01:33N 31°20' E 121°44'1110.0
2014-Jul-21 00:25N 31°16' E 121°56'1110.9
2014-Jul-20 23:25N 31°12' E 122°08'1112.5
2014-Jul-20 22:33N 31°06' E 122°19'9 9.2
2014-Jul-20 21:34N 31°07' E 122°29'2310.1
2014-Jul-20 19:16N 31°03' E 122°56'3 0.9
2014-Jul-20 15:31N 31°01' E 122°58'2 2.2
2014-Jul-20 14:32N 30°59' E 122°60'9 9.3
2014-Jul-20 13:33N 30°50' E 123°01'1110.8
2014-Jul-20 12:33N 30°39' E 123°01'1111.5
2014-Jul-20 11:33N 30°28' E 123°00'1312.6
2014-Jul-20 10:33N 30°15' E 123°01'1212.1
2014-Jul-20 09:33N 30°03' E 122°57'1211.7
2014-Jul-20 08:34N 29°56' E 122°47'1211.8
2014-Jul-20 07:33N 29°49' E 122°36'1111.2
2014-Jul-20 06:33N 29°44' E 122°24'9 9.4
2014-Jul-20 05:34N 29°48' E 122°14'5 4.8
2014-Jul-20 04:32N 29°53' E 122°13'0 0.0
2014-Jul-20 03:32N 29°53' E 122°13'0 0.0
2014-Jul-20 02:32N 29°53' E 122°13'0 0.0
2014-Jul-20 01:32N 29°53' E 122°13'0 0.1
2014-Jul-20 00:32N 29°53' E 122°13'0 0.1
2014-Jul-19 23:32N 29°53' E 122°13'0 0.0
2014-Jul-19 22:32N 29°53' E 122°13'0 0.0
2014-Jul-19 21:32N 29°53' E 122°13'0 0.1
2014-Jul-19 20:32N 29°53' E 122°13'0 0.1
2014-Jul-19 19:32N 29°53' E 122°13'0 0.1
2014-Jul-19 18:32N 29°53' E 122°13'0 0.0
2014-Jul-19 17:32N 29°53' E 122°13'0 0.2
2014-Jul-19 16:26N 29°53' E 122°13'0 0.0
2014-Jul-19 15:32N 29°53' E 122°13'0 0.0
2014-Jul-19 14:32N 29°53' E 122°13'0 0.0
2014-Jul-19 13:32N 29°53' E 122°13'0 0.0
2014-Jul-19 12:32N 29°53' E 122°13'0 0.1
2014-Jul-19 11:32N 29°53' E 122°13'0 0.1
2014-Jul-19 10:32N 29°53' E 122°13'0 0.1
2014-Jul-19 09:32N 29°53' E 122°13'0 0.1
2014-Jul-19 08:32N 29°53' E 122°13'0 0.1
2014-Jul-19 07:32N 29°53' E 122°13'0 0.1
2014-Jul-19 06:32N 29°53' E 122°13'0 0.0
2014-Jul-19 05:32N 29°53' E 122°13'0 0.2
2014-Jul-19 04:32N 29°53' E 122°13'0 0.0
2014-Jul-19 03:32N 29°53' E 122°13'0 0.0
2014-Jul-19 02:32N 29°53' E 122°13'0 0.0
2014-Jul-19 01:32N 29°53' E 122°13'0 0.0
2014-Jul-19 00:32N 29°53' E 122°13'0 0.1
2014-Jul-18 23:32N 29°53' E 122°13'0 0.0
2014-Jul-18 22:32N 29°53' E 122°13'0 0.0
2014-Jul-18 21:32N 29°53' E 122°13'0 0.0
2014-Jul-18 20:32N 29°53' E 122°13'0 0.1
2014-Jul-18 19:32N 29°53' E 122°13'0 0.0
2014-Jul-18 18:32N 29°53' E 122°13'0 0.1
2014-Jul-18 17:32N 29°53' E 122°13'0 0.0
2014-Jul-18 16:32N 29°53' E 122°13'0 0.1
2014-Jul-18 15:32N 29°53' E 122°13'0 0.1
2014-Jul-18 14:32N 29°53' E 122°13'0 0.0
2014-Jul-18 13:26N 29°53' E 122°13'0 0.0
2014-Jul-18 12:32N 29°53' E 122°13'0 0.0
2014-Jul-18 11:32N 29°53' E 122°13'0 0.0
2014-Jul-18 10:32N 29°53' E 122°13'0 0.1
2014-Jul-18 09:32N 29°53' E 122°13'0 0.2
2014-Jul-18 08:33N 29°53' E 122°13'9 8.9
2014-Jul-18 07:33N 29°46' E 122°19'6 6.0
2014-Jul-18 06:33N 29°42' E 122°24'2 1.7
2014-Jul-18 05:33N 29°41' E 122°25'3 3.0
2014-Jul-18 04:33N 29°38' E 122°26'1110.4
2014-Jul-18 03:32N 29°28' E 122°30'1612.8
2014-Jul-18 02:18N 29°12' E 122°30'26713.4
2014-Jul-17 06:24N 25°21' E 120°01'2613.2
2014-Jul-17 04:27N 25°01' E 119°43'1514.3
2014-Jul-17 03:24N 24°50' E 119°32'1314.2
2014-Jul-17 02:31N 24°41' E 119°22'1414.4
2014-Jul-17 01:33N 24°31' E 119°11'1514.5
2014-Jul-17 00:33N 24°22' E 118°59'2813.9
2014-Jul-16 22:33N 24°03' E 118°37'1312.9
2014-Jul-16 21:33N 23°54' E 118°26'2512.6
2014-Jul-16 19:33N 23°37' E 118°06'1313.4
2014-Jul-16 18:33N 23°28' E 117°56'3414.6
2014-Jul-16 16:11N 23°05' E 117°28'1013.2
2014-Jul-16 15:28N 22°58' E 117°21'1314.7
2014-Jul-16 14:33N 22°45' E 117°16'1414.1
2014-Jul-16 13:33N 22°32' E 117°10'  

Dump ship's entire track history